sensor_id;sensor_type;location;lat;lon;timestamp;P1;durP1;ratioP1;P2;durP2;ratioP2
14048;SDS011;7099;53.922;10.728;2023-05-07T00:00:28;13.77;;;10.00;;
14048;SDS011;7099;53.922;10.728;2023-05-07T00:04:35;13.90;;;9.97;;
14048;SDS011;7099;53.922;10.728;2023-05-07T00:08:42;14.10;;;9.97;;
14048;SDS011;7099;53.922;10.728;2023-05-07T00:12:48;11.30;;;9.80;;
14048;SDS011;7099;53.922;10.728;2023-05-07T00:16:55;15.03;;;9.30;;
14048;SDS011;7099;53.922;10.728;2023-05-07T00:21:01;11.20;;;9.37;;
14048;SDS011;7099;53.922;10.728;2023-05-07T00:25:07;12.27;;;9.37;;
14048;SDS011;7099;53.922;10.728;2023-05-07T00:29:14;14.43;;;9.90;;
14048;SDS011;7099;53.922;10.728;2023-05-07T00:33:20;11.87;;;9.33;;
14048;SDS011;7099;53.922;10.728;2023-05-07T00:37:26;10.97;;;9.10;;
14048;SDS011;7099;53.922;10.728;2023-05-07T00:41:32;16.00;;;8.93;;
14048;SDS011;7099;53.922;10.728;2023-05-07T00:45:37;14.03;;;9.10;;
14048;SDS011;7099;53.922;10.728;2023-05-07T00:49:44;10.93;;;8.80;;
14048;SDS011;7099;53.922;10.728;2023-05-07T00:53:51;11.73;;;8.70;;
14048;SDS011;7099;53.922;10.728;2023-05-07T00:57:57;12.60;;;8.77;;
14048;SDS011;7099;53.922;10.728;2023-05-07T01:02:03;13.20;;;8.87;;
14048;SDS011;7099;53.922;10.728;2023-05-07T01:06:09;11.17;;;8.90;;
14048;SDS011;7099;53.922;10.728;2023-05-07T01:10:18;11.70;;;8.60;;
14048;SDS011;7099;53.922;10.728;2023-05-07T01:14:24;9.70;;;7.73;;
14048;SDS011;7099;53.922;10.728;2023-05-07T01:18:30;8.90;;;7.73;;
14048;SDS011;7099;53.922;10.728;2023-05-07T01:22:37;9.17;;;8.17;;
14048;SDS011;7099;53.922;10.728;2023-05-07T01:26:44;8.93;;;7.33;;
14048;SDS011;7099;53.922;10.728;2023-05-07T01:30:51;11.27;;;8.70;;
14048;SDS011;7099;53.922;10.728;2023-05-07T01:35:01;11.63;;;8.73;;
14048;SDS011;7099;53.922;10.728;2023-05-07T01:39:10;10.73;;;8.60;;
14048;SDS011;7099;53.922;10.728;2023-05-07T01:43:18;10.30;;;8.40;;
14048;SDS011;7099;53.922;10.728;2023-05-07T01:47:24;9.73;;;7.90;;
14048;SDS011;7099;53.922;10.728;2023-05-07T01:51:32;10.57;;;7.67;;
14048;SDS011;7099;53.922;10.728;2023-05-07T01:55:39;12.20;;;8.17;;
14048;SDS011;7099;53.922;10.728;2023-05-07T01:59:45;12.10;;;8.97;;
14048;SDS011;7099;53.922;10.728;2023-05-07T02:03:50;13.33;;;9.13;;
14048;SDS011;7099;53.922;10.728;2023-05-07T02:07:57;11.63;;;8.43;;
14048;SDS011;7099;53.922;10.728;2023-05-07T02:12:02;10.43;;;8.50;;
14048;SDS011;7099;53.922;10.728;2023-05-07T02:16:08;10.60;;;8.73;;
14048;SDS011;7099;53.922;10.728;2023-05-07T02:20:15;14.80;;;8.03;;
14048;SDS011;7099;53.922;10.728;2023-05-07T02:24:21;11.63;;;8.87;;
14048;SDS011;7099;53.922;10.728;2023-05-07T02:28:26;10.67;;;8.50;;
14048;SDS011;7099;53.922;10.728;2023-05-07T02:32:32;11.97;;;8.50;;
14048;SDS011;7099;53.922;10.728;2023-05-07T02:36:37;9.83;;;7.80;;
14048;SDS011;7099;53.922;10.728;2023-05-07T02:40:43;12.17;;;8.00;;
14048;SDS011;7099;53.922;10.728;2023-05-07T02:44:49;11.67;;;9.20;;
14048;SDS011;7099;53.922;10.728;2023-05-07T02:48:54;13.17;;;8.27;;
14048;SDS011;7099;53.922;10.728;2023-05-07T02:53:00;10.30;;;8.70;;
14048;SDS011;7099;53.922;10.728;2023-05-07T02:57:06;11.33;;;7.77;;
14048;SDS011;7099;53.922;10.728;2023-05-07T03:01:13;8.70;;;7.70;;
14048;SDS011;7099;53.922;10.728;2023-05-07T03:05:19;12.70;;;9.20;;
14048;SDS011;7099;53.922;10.728;2023-05-07T03:09:26;9.90;;;7.70;;
14048;SDS011;7099;53.922;10.728;2023-05-07T03:13:32;14.43;;;8.27;;
14048;SDS011;7099;53.922;10.728;2023-05-07T03:17:37;8.77;;;7.87;;
14048;SDS011;7099;53.922;10.728;2023-05-07T03:21:43;12.77;;;8.10;;
14048;SDS011;7099;53.922;10.728;2023-05-07T03:25:49;8.93;;;7.63;;
14048;SDS011;7099;53.922;10.728;2023-05-07T03:29:56;8.80;;;7.20;;
14048;SDS011;7099;53.922;10.728;2023-05-07T03:34:01;10.47;;;8.10;;
14048;SDS011;7099;53.922;10.728;2023-05-07T03:38:07;7.57;;;6.77;;
14048;SDS011;7099;53.922;10.728;2023-05-07T03:42:13;8.60;;;6.70;;
14048;SDS011;7099;53.922;10.728;2023-05-07T03:46:19;10.13;;;7.20;;
14048;SDS011;7099;53.922;10.728;2023-05-07T03:50:26;12.20;;;7.13;;
14048;SDS011;7099;53.922;10.728;2023-05-07T03:54:31;8.90;;;7.13;;
14048;SDS011;7099;53.922;10.728;2023-05-07T03:58:37;10.20;;;7.30;;
14048;SDS011;7099;53.922;10.728;2023-05-07T04:02:43;8.83;;;7.00;;
14048;SDS011;7099;53.922;10.728;2023-05-07T04:06:49;9.30;;;7.50;;
14048;SDS011;7099;53.922;10.728;2023-05-07T04:10:55;9.00;;;7.20;;
14048;SDS011;7099;53.922;10.728;2023-05-07T04:15:02;8.93;;;7.57;;
14048;SDS011;7099;53.922;10.728;2023-05-07T04:19:08;9.73;;;7.57;;
14048;SDS011;7099;53.922;10.728;2023-05-07T04:23:13;16.73;;;7.47;;
14048;SDS011;7099;53.922;10.728;2023-05-07T04:27:19;11.10;;;7.70;;
14048;SDS011;7099;53.922;10.728;2023-05-07T04:31:25;9.57;;;7.43;;
14048;SDS011;7099;53.922;10.728;2023-05-07T04:35:32;10.13;;;8.50;;
14048;SDS011;7099;53.922;10.728;2023-05-07T04:39:37;11.40;;;8.00;;
14048;SDS011;7099;53.922;10.728;2023-05-07T04:43:43;8.53;;;7.10;;
14048;SDS011;7099;53.922;10.728;2023-05-07T04:47:49;12.17;;;8.20;;
14048;SDS011;7099;53.922;10.728;2023-05-07T04:51:55;12.50;;;8.03;;
14048;SDS011;7099;53.922;10.728;2023-05-07T04:56:00;9.00;;;7.37;;
14048;SDS011;7099;53.922;10.728;2023-05-07T05:00:06;9.00;;;6.93;;
14048;SDS011;7099;53.922;10.728;2023-05-07T05:04:14;8.97;;;7.33;;
14048;SDS011;7099;53.922;10.728;2023-05-07T05:08:19;9.27;;;7.63;;
14048;SDS011;7099;53.922;10.728;2023-05-07T05:12:25;10.47;;;7.57;;
14048;SDS011;7099;53.922;10.728;2023-05-07T05:16:31;11.27;;;7.63;;
14048;SDS011;7099;53.922;10.728;2023-05-07T05:20:38;9.00;;;7.00;;
14048;SDS011;7099;53.922;10.728;2023-05-07T05:24:43;7.90;;;7.10;;
14048;SDS011;7099;53.922;10.728;2023-05-07T05:28:49;10.63;;;7.40;;
14048;SDS011;7099;53.922;10.728;2023-05-07T05:32:55;9.20;;;6.50;;
14048;SDS011;7099;53.922;10.728;2023-05-07T05:37:00;8.13;;;6.60;;
14048;SDS011;7099;53.922;10.728;2023-05-07T05:41:06;6.93;;;6.23;;
14048;SDS011;7099;53.922;10.728;2023-05-07T05:45:12;7.47;;;6.57;;
14048;SDS011;7099;53.922;10.728;2023-05-07T05:49:17;8.20;;;6.47;;
14048;SDS011;7099;53.922;10.728;2023-05-07T05:53:23;6.53;;;5.83;;
14048;SDS011;7099;53.922;10.728;2023-05-07T05:57:28;6.97;;;6.00;;
14048;SDS011;7099;53.922;10.728;2023-05-07T06:01:34;8.90;;;7.07;;
14048;SDS011;7099;53.922;10.728;2023-05-07T06:05:40;11.30;;;6.53;;
14048;SDS011;7099;53.922;10.728;2023-05-07T06:09:47;9.23;;;7.10;;
14048;SDS011;7099;53.922;10.728;2023-05-07T06:13:54;8.17;;;6.70;;
14048;SDS011;7099;53.922;10.728;2023-05-07T06:17:59;8.53;;;6.93;;
14048;SDS011;7099;53.922;10.728;2023-05-07T06:22:05;7.90;;;6.40;;
14048;SDS011;7099;53.922;10.728;2023-05-07T06:26:11;8.13;;;6.10;;
14048;SDS011;7099;53.922;10.728;2023-05-07T06:30:16;9.93;;;7.07;;
14048;SDS011;7099;53.922;10.728;2023-05-07T06:34:22;7.90;;;6.00;;
14048;SDS011;7099;53.922;10.728;2023-05-07T06:38:27;5.93;;;5.30;;
14048;SDS011;7099;53.922;10.728;2023-05-07T06:42:33;7.70;;;5.60;;
14048;SDS011;7099;53.922;10.728;2023-05-07T06:46:39;5.03;;;4.53;;
14048;SDS011;7099;53.922;10.728;2023-05-07T06:50:44;5.63;;;5.03;;
14048;SDS011;7099;53.922;10.728;2023-05-07T06:54:50;5.07;;;4.20;;
14048;SDS011;7099;53.922;10.728;2023-05-07T06:58:56;5.10;;;4.60;;
14048;SDS011;7099;53.922;10.728;2023-05-07T07:03:01;4.83;;;4.30;;
14048;SDS011;7099;53.922;10.728;2023-05-07T07:07:07;7.10;;;5.33;;
14048;SDS011;7099;53.922;10.728;2023-05-07T07:11:13;7.63;;;4.90;;
14048;SDS011;7099;53.922;10.728;2023-05-07T07:15:20;6.30;;;4.77;;
14048;SDS011;7099;53.922;10.728;2023-05-07T07:19:26;6.50;;;4.83;;
14048;SDS011;7099;53.922;10.728;2023-05-07T07:23:32;5.50;;;4.10;;
14048;SDS011;7099;53.922;10.728;2023-05-07T07:27:37;4.63;;;4.23;;
14048;SDS011;7099;53.922;10.728;2023-05-07T07:31:44;7.53;;;4.53;;
14048;SDS011;7099;53.922;10.728;2023-05-07T07:35:51;5.70;;;4.53;;
14048;SDS011;7099;53.922;10.728;2023-05-07T07:39:57;6.47;;;4.10;;
14048;SDS011;7099;53.922;10.728;2023-05-07T07:44:03;4.70;;;4.30;;
14048;SDS011;7099;53.922;10.728;2023-05-07T07:48:11;5.40;;;4.67;;
14048;SDS011;7099;53.922;10.728;2023-05-07T07:52:18;5.77;;;4.50;;
14048;SDS011;7099;53.922;10.728;2023-05-07T07:56:23;6.10;;;4.70;;
14048;SDS011;7099;53.922;10.728;2023-05-07T08:00:30;5.70;;;3.83;;
14048;SDS011;7099;53.922;10.728;2023-05-07T08:04:36;4.20;;;3.80;;
14048;SDS011;7099;53.922;10.728;2023-05-07T08:08:42;3.80;;;3.50;;
14048;SDS011;7099;53.922;10.728;2023-05-07T08:12:48;4.77;;;4.10;;
14048;SDS011;7099;53.922;10.728;2023-05-07T08:16:54;4.10;;;3.73;;
14048;SDS011;7099;53.922;10.728;2023-05-07T08:21:00;4.60;;;4.20;;
14048;SDS011;7099;53.922;10.728;2023-05-07T08:25:06;4.57;;;4.03;;
14048;SDS011;7099;53.922;10.728;2023-05-07T08:29:12;3.73;;;3.20;;
14048;SDS011;7099;53.922;10.728;2023-05-07T08:33:18;4.00;;;3.53;;
14048;SDS011;7099;53.922;10.728;2023-05-07T08:37:24;4.73;;;3.67;;
14048;SDS011;7099;53.922;10.728;2023-05-07T08:41:30;4.37;;;3.77;;
14048;SDS011;7099;53.922;10.728;2023-05-07T08:45:36;5.83;;;3.73;;
14048;SDS011;7099;53.922;10.728;2023-05-07T08:49:45;3.90;;;3.50;;
14048;SDS011;7099;53.922;10.728;2023-05-07T08:53:51;5.87;;;3.60;;
14048;SDS011;7099;53.922;10.728;2023-05-07T08:57:56;3.67;;;3.27;;
14048;SDS011;7099;53.922;10.728;2023-05-07T09:02:02;4.27;;;3.60;;
14048;SDS011;7099;53.922;10.728;2023-05-07T09:10:13;4.47;;;3.23;;
14048;SDS011;7099;53.922;10.728;2023-05-07T09:14:21;4.00;;;3.13;;
14048;SDS011;7099;53.922;10.728;2023-05-07T09:22:32;4.00;;;3.37;;
14048;SDS011;7099;53.922;10.728;2023-05-07T09:26:39;4.57;;;3.27;;
14048;SDS011;7099;53.922;10.728;2023-05-07T09:30:44;3.93;;;3.30;;
14048;SDS011;7099;53.922;10.728;2023-05-07T09:34:50;3.20;;;2.90;;
14048;SDS011;7099;53.922;10.728;2023-05-07T09:38:56;4.00;;;2.90;;
14048;SDS011;7099;53.922;10.728;2023-05-07T09:43:09;2.93;;;2.70;;
14048;SDS011;7099;53.922;10.728;2023-05-07T09:47:18;2.53;;;2.33;;
14048;SDS011;7099;53.922;10.728;2023-05-07T09:51:30;3.63;;;2.80;;
14048;SDS011;7099;53.922;10.728;2023-05-07T09:55:53;3.20;;;2.90;;
14048;SDS011;7099;53.922;10.728;2023-05-07T09:59:59;3.20;;;2.63;;
14048;SDS011;7099;53.922;10.728;2023-05-07T10:04:10;4.63;;;2.23;;
14048;SDS011;7099;53.922;10.728;2023-05-07T10:08:17;2.77;;;2.57;;
14048;SDS011;7099;53.922;10.728;2023-05-07T10:12:24;4.63;;;2.43;;
14048;SDS011;7099;53.922;10.728;2023-05-07T10:16:31;2.13;;;1.80;;
14048;SDS011;7099;53.922;10.728;2023-05-07T10:24:47;3.03;;;2.37;;
14048;SDS011;7099;53.922;10.728;2023-05-07T10:28:59;2.50;;;2.10;;
14048;SDS011;7099;53.922;10.728;2023-05-07T10:33:11;4.97;;;1.90;;
14048;SDS011;7099;53.922;10.728;2023-05-07T10:37:20;4.87;;;2.53;;
14048;SDS011;7099;53.922;10.728;2023-05-07T10:41:27;3.10;;;2.00;;
14048;SDS011;7099;53.922;10.728;2023-05-07T10:45:33;5.37;;;2.20;;
14048;SDS011;7099;53.922;10.728;2023-05-07T10:54:36;4.53;;;1.90;;
14048;SDS011;7099;53.922;10.728;2023-05-07T10:58:29;2.63;;;2.00;;
14048;SDS011;7099;53.922;10.728;2023-05-07T11:11:13;2.77;;;1.80;;
14048;SDS011;7099;53.922;10.728;2023-05-07T11:15:38;3.00;;;1.67;;
14048;SDS011;7099;53.922;10.728;2023-05-07T11:19:52;7.73;;;1.83;;
14048;SDS011;7099;53.922;10.728;2023-05-07T11:24:00;2.03;;;1.87;;
14048;SDS011;7099;53.922;10.728;2023-05-07T11:28:10;2.37;;;1.87;;
14048;SDS011;7099;53.922;10.728;2023-05-07T11:36:37;2.63;;;1.33;;
14048;SDS011;7099;53.922;10.728;2023-05-07T11:40:52;3.20;;;1.60;;
14048;SDS011;7099;53.922;10.728;2023-05-07T11:45:00;2.27;;;1.80;;
14048;SDS011;7099;53.922;10.728;2023-05-07T11:49:07;1.90;;;1.60;;
14048;SDS011;7099;53.922;10.728;2023-05-07T11:53:14;2.20;;;1.63;;
14048;SDS011;7099;53.922;10.728;2023-05-07T12:30:11;2.10;;;1.60;;
14048;SDS011;7099;53.922;10.728;2023-05-07T12:34:17;1.60;;;1.50;;
14048;SDS011;7099;53.922;10.728;2023-05-07T12:38:23;2.30;;;1.53;;
14048;SDS011;7099;53.922;10.728;2023-05-07T12:42:32;1.60;;;1.50;;
14048;SDS011;7099;53.922;10.728;2023-05-07T12:46:43;2.63;;;1.47;;
14048;SDS011;7099;53.922;10.728;2023-05-07T12:50:51;1.50;;;1.40;;
14048;SDS011;7099;53.922;10.728;2023-05-07T12:55:04;2.30;;;1.77;;
14048;SDS011;7099;53.922;10.728;2023-05-07T12:59:14;3.93;;;2.00;;
14048;SDS011;7099;53.922;10.728;2023-05-07T13:03:29;1.70;;;1.60;;
14048;SDS011;7099;53.922;10.728;2023-05-07T13:07:37;3.50;;;1.77;;
14048;SDS011;7099;53.922;10.728;2023-05-07T13:11:43;2.20;;;1.70;;
14048;SDS011;7099;53.922;10.728;2023-05-07T13:15:49;2.10;;;1.70;;
14048;SDS011;7099;53.922;10.728;2023-05-07T13:19:54;2.37;;;1.80;;
14048;SDS011;7099;53.922;10.728;2023-05-07T13:24:00;3.37;;;1.77;;
14048;SDS011;7099;53.922;10.728;2023-05-07T13:28:06;2.50;;;1.83;;
14048;SDS011;7099;53.922;10.728;2023-05-07T13:32:15;2.90;;;1.67;;
14048;SDS011;7099;53.922;10.728;2023-05-07T13:36:21;2.50;;;1.90;;
14048;SDS011;7099;53.922;10.728;2023-05-07T13:40:27;2.23;;;2.00;;
14048;SDS011;7099;53.922;10.728;2023-05-07T13:44:32;3.07;;;1.57;;
14048;SDS011;7099;53.922;10.728;2023-05-07T13:48:38;3.50;;;2.17;;
14048;SDS011;7099;53.922;10.728;2023-05-07T13:52:44;3.20;;;1.90;;
14048;SDS011;7099;53.922;10.728;2023-05-07T13:56:56;3.63;;;2.03;;
14048;SDS011;7099;53.922;10.728;2023-05-07T14:01:01;5.80;;;1.73;;
14048;SDS011;7099;53.922;10.728;2023-05-07T14:05:07;7.23;;;1.90;;
14048;SDS011;7099;53.922;10.728;2023-05-07T14:09:16;4.67;;;2.00;;
14048;SDS011;7099;53.922;10.728;2023-05-07T14:13:23;3.10;;;2.00;;
14048;SDS011;7099;53.922;10.728;2023-05-07T14:17:29;2.00;;;1.80;;
14048;SDS011;7099;53.922;10.728;2023-05-07T14:21:35;3.03;;;1.90;;
14048;SDS011;7099;53.922;10.728;2023-05-07T14:25:40;2.03;;;1.80;;
14048;SDS011;7099;53.922;10.728;2023-05-07T14:29:48;2.57;;;2.00;;
14048;SDS011;7099;53.922;10.728;2023-05-07T14:33:55;5.00;;;2.83;;
14048;SDS011;7099;53.922;10.728;2023-05-07T14:38:02;2.47;;;1.90;;
14048;SDS011;7099;53.922;10.728;2023-05-07T14:42:08;11.37;;;1.83;;
14048;SDS011;7099;53.922;10.728;2023-05-07T14:46:14;2.97;;;2.03;;
14048;SDS011;7099;53.922;10.728;2023-05-07T14:50:20;3.00;;;2.03;;
14048;SDS011;7099;53.922;10.728;2023-05-07T14:54:25;4.63;;;1.70;;
14048;SDS011;7099;53.922;10.728;2023-05-07T14:58:31;2.30;;;1.77;;
14048;SDS011;7099;53.922;10.728;2023-05-07T15:02:37;4.40;;;2.07;;
14048;SDS011;7099;53.922;10.728;2023-05-07T15:06:43;3.43;;;2.07;;
14048;SDS011;7099;53.922;10.728;2023-05-07T15:10:49;3.00;;;1.70;;
14048;SDS011;7099;53.922;10.728;2023-05-07T15:14:54;5.97;;;2.10;;
14048;SDS011;7099;53.922;10.728;2023-05-07T15:19:00;3.43;;;2.20;;
14048;SDS011;7099;53.922;10.728;2023-05-07T15:23:06;2.00;;;1.80;;
14048;SDS011;7099;53.922;10.728;2023-05-07T15:27:17;3.40;;;1.83;;
14048;SDS011;7099;53.922;10.728;2023-05-07T15:31:23;4.77;;;2.20;;
14048;SDS011;7099;53.922;10.728;2023-05-07T15:35:30;2.83;;;2.27;;
14048;SDS011;7099;53.922;10.728;2023-05-07T15:39:36;3.30;;;2.00;;
14048;SDS011;7099;53.922;10.728;2023-05-07T15:43:46;6.33;;;2.27;;
14048;SDS011;7099;53.922;10.728;2023-05-07T15:47:55;5.23;;;2.40;;
14048;SDS011;7099;53.922;10.728;2023-05-07T15:52:01;5.80;;;2.40;;
14048;SDS011;7099;53.922;10.728;2023-05-07T15:56:06;4.13;;;2.13;;
14048;SDS011;7099;53.922;10.728;2023-05-07T16:00:12;4.50;;;2.37;;
14048;SDS011;7099;53.922;10.728;2023-05-07T16:04:20;3.43;;;2.13;;
14048;SDS011;7099;53.922;10.728;2023-05-07T16:08:26;2.57;;;1.83;;
14048;SDS011;7099;53.922;10.728;2023-05-07T16:12:32;2.33;;;2.03;;
14048;SDS011;7099;53.922;10.728;2023-05-07T16:16:38;3.60;;;1.80;;
14048;SDS011;7099;53.922;10.728;2023-05-07T16:20:45;7.63;;;2.70;;
14048;SDS011;7099;53.922;10.728;2023-05-07T16:24:51;2.60;;;1.83;;
14048;SDS011;7099;53.922;10.728;2023-05-07T16:28:56;2.20;;;1.87;;
14048;SDS011;7099;53.922;10.728;2023-05-07T16:33:03;2.40;;;1.70;;
14048;SDS011;7099;53.922;10.728;2023-05-07T16:41:14;2.97;;;1.90;;
14048;SDS011;7099;53.922;10.728;2023-05-07T16:45:20;2.60;;;1.87;;
14048;SDS011;7099;53.922;10.728;2023-05-07T16:49:27;1.87;;;1.67;;
14048;SDS011;7099;53.922;10.728;2023-05-07T16:53:32;2.90;;;1.87;;
14048;SDS011;7099;53.922;10.728;2023-05-07T16:57:39;3.13;;;1.70;;
14048;SDS011;7099;53.922;10.728;2023-05-07T17:01:45;3.17;;;1.80;;
14048;SDS011;7099;53.922;10.728;2023-05-07T17:05:50;2.77;;;1.70;;
14048;SDS011;7099;53.922;10.728;2023-05-07T17:09:56;3.27;;;2.17;;
14048;SDS011;7099;53.922;10.728;2023-05-07T17:14:02;3.57;;;1.80;;
14048;SDS011;7099;53.922;10.728;2023-05-07T17:18:09;2.37;;;1.67;;
14048;SDS011;7099;53.922;10.728;2023-05-07T17:22:15;2.57;;;1.80;;
14048;SDS011;7099;53.922;10.728;2023-05-07T17:26:20;3.40;;;1.90;;
14048;SDS011;7099;53.922;10.728;2023-05-07T17:30:26;2.63;;;1.87;;
14048;SDS011;7099;53.922;10.728;2023-05-07T17:34:31;3.13;;;1.87;;
14048;SDS011;7099;53.922;10.728;2023-05-07T17:38:37;3.80;;;2.20;;
14048;SDS011;7099;53.922;10.728;2023-05-07T17:42:42;4.90;;;1.90;;
14048;SDS011;7099;53.922;10.728;2023-05-07T17:46:48;1.50;;;1.40;;
14048;SDS011;7099;53.922;10.728;2023-05-07T17:50:59;3.93;;;1.87;;
14048;SDS011;7099;53.922;10.728;2023-05-07T17:55:06;4.93;;;1.77;;
14048;SDS011;7099;53.922;10.728;2023-05-07T17:59:14;2.23;;;1.70;;
14048;SDS011;7099;53.922;10.728;2023-05-07T18:03:19;4.20;;;1.80;;
14048;SDS011;7099;53.922;10.728;2023-05-07T18:07:25;2.70;;;1.67;;
14048;SDS011;7099;53.922;10.728;2023-05-07T18:11:31;2.10;;;1.40;;
14048;SDS011;7099;53.922;10.728;2023-05-07T18:15:37;5.37;;;1.87;;
14048;SDS011;7099;53.922;10.728;2023-05-07T18:19:43;9.13;;;2.07;;
14048;SDS011;7099;53.922;10.728;2023-05-07T18:23:48;2.63;;;2.00;;
14048;SDS011;7099;53.922;10.728;2023-05-07T18:27:55;2.37;;;1.80;;
14048;SDS011;7099;53.922;10.728;2023-05-07T18:32:01;4.33;;;1.73;;
14048;SDS011;7099;53.922;10.728;2023-05-07T18:36:06;2.60;;;1.60;;
14048;SDS011;7099;53.922;10.728;2023-05-07T18:40:12;3.30;;;2.30;;
14048;SDS011;7099;53.922;10.728;2023-05-07T18:44:18;2.73;;;1.93;;
14048;SDS011;7099;53.922;10.728;2023-05-07T18:48:26;7.50;;;2.83;;
14048;SDS011;7099;53.922;10.728;2023-05-07T18:52:32;7.67;;;3.33;;
14048;SDS011;7099;53.922;10.728;2023-05-07T18:56:38;4.67;;;2.70;;
14048;SDS011;7099;53.922;10.728;2023-05-07T19:00:45;5.30;;;2.90;;
14048;SDS011;7099;53.922;10.728;2023-05-07T19:04:52;4.50;;;2.23;;
14048;SDS011;7099;53.922;10.728;2023-05-07T19:08:57;2.83;;;2.10;;
14048;SDS011;7099;53.922;10.728;2023-05-07T19:13:03;3.57;;;1.97;;
14048;SDS011;7099;53.922;10.728;2023-05-07T19:17:09;5.77;;;2.20;;
14048;SDS011;7099;53.922;10.728;2023-05-07T19:21:16;3.47;;;2.37;;
14048;SDS011;7099;53.922;10.728;2023-05-07T19:25:22;4.07;;;2.37;;
14048;SDS011;7099;53.922;10.728;2023-05-07T19:29:28;4.10;;;2.10;;
14048;SDS011;7099;53.922;10.728;2023-05-07T19:33:33;2.73;;;1.97;;
14048;SDS011;7099;53.922;10.728;2023-05-07T19:37:39;2.57;;;1.80;;
14048;SDS011;7099;53.922;10.728;2023-05-07T19:41:44;2.80;;;2.17;;
14048;SDS011;7099;53.922;10.728;2023-05-07T19:45:51;7.20;;;2.30;;
14048;SDS011;7099;53.922;10.728;2023-05-07T19:49:59;3.83;;;2.73;;
14048;SDS011;7099;53.922;10.728;2023-05-07T19:54:05;3.00;;;2.10;;
14048;SDS011;7099;53.922;10.728;2023-05-07T19:58:11;3.00;;;2.20;;
14048;SDS011;7099;53.922;10.728;2023-05-07T20:02:20;9.17;;;8.27;;
14048;SDS011;7099;53.922;10.728;2023-05-07T20:06:26;6.70;;;5.60;;
14048;SDS011;7099;53.922;10.728;2023-05-07T20:10:31;3.13;;;2.40;;
14048;SDS011;7099;53.922;10.728;2023-05-07T20:14:37;4.30;;;3.40;;
14048;SDS011;7099;53.922;10.728;2023-05-07T20:18:43;5.50;;;2.20;;
14048;SDS011;7099;53.922;10.728;2023-05-07T20:22:48;5.00;;;2.20;;
14048;SDS011;7099;53.922;10.728;2023-05-07T20:26:54;2.60;;;2.10;;
14048;SDS011;7099;53.922;10.728;2023-05-07T20:30:59;11.63;;;2.90;;
14048;SDS011;7099;53.922;10.728;2023-05-07T20:35:05;4.57;;;2.30;;
14048;SDS011;7099;53.922;10.728;2023-05-07T20:39:11;5.20;;;2.03;;
14048;SDS011;7099;53.922;10.728;2023-05-07T20:43:19;2.40;;;2.20;;
14048;SDS011;7099;53.922;10.728;2023-05-07T20:47:25;3.70;;;2.37;;
14048;SDS011;7099;53.922;10.728;2023-05-07T20:51:31;5.00;;;3.20;;
14048;SDS011;7099;53.922;10.728;2023-05-07T20:55:37;3.13;;;2.60;;
14048;SDS011;7099;53.922;10.728;2023-05-07T20:59:43;3.17;;;2.47;;
14048;SDS011;7099;53.922;10.728;2023-05-07T21:03:48;3.90;;;2.90;;
14048;SDS011;7099;53.922;10.728;2023-05-07T21:07:57;4.00;;;2.87;;
14048;SDS011;7099;53.922;10.728;2023-05-07T21:12:03;5.33;;;2.43;;
14048;SDS011;7099;53.922;10.728;2023-05-07T21:16:09;5.50;;;2.93;;
14048;SDS011;7099;53.922;10.728;2023-05-07T21:20:15;3.63;;;2.70;;
14048;SDS011;7099;53.922;10.728;2023-05-07T21:24:20;7.37;;;3.10;;
14048;SDS011;7099;53.922;10.728;2023-05-07T21:28:26;4.00;;;3.00;;
14048;SDS011;7099;53.922;10.728;2023-05-07T21:32:32;6.43;;;2.57;;
14048;SDS011;7099;53.922;10.728;2023-05-07T21:36:37;5.90;;;2.70;;
14048;SDS011;7099;53.922;10.728;2023-05-07T21:40:43;7.13;;;2.97;;
14048;SDS011;7099;53.922;10.728;2023-05-07T21:44:49;3.03;;;2.27;;
14048;SDS011;7099;53.922;10.728;2023-05-07T21:48:55;4.73;;;2.47;;
14048;SDS011;7099;53.922;10.728;2023-05-07T21:53:00;6.30;;;2.60;;
14048;SDS011;7099;53.922;10.728;2023-05-07T21:57:06;8.20;;;2.57;;
14048;SDS011;7099;53.922;10.728;2023-05-07T22:01:11;7.37;;;2.90;;
14048;SDS011;7099;53.922;10.728;2023-05-07T22:05:17;5.27;;;2.97;;
14048;SDS011;7099;53.922;10.728;2023-05-07T22:09:23;2.90;;;2.60;;
14048;SDS011;7099;53.922;10.728;2023-05-07T22:13:28;4.53;;;2.70;;
14048;SDS011;7099;53.922;10.728;2023-05-07T22:17:34;5.00;;;2.67;;
14048;SDS011;7099;53.922;10.728;2023-05-07T22:21:40;3.50;;;2.30;;
14048;SDS011;7099;53.922;10.728;2023-05-07T22:25:45;4.20;;;2.53;;
14048;SDS011;7099;53.922;10.728;2023-05-07T22:29:51;4.90;;;3.10;;
14048;SDS011;7099;53.922;10.728;2023-05-07T22:33:57;4.23;;;2.33;;
14048;SDS011;7099;53.922;10.728;2023-05-07T22:38:03;7.00;;;2.60;;
14048;SDS011;7099;53.922;10.728;2023-05-07T22:42:08;3.70;;;2.60;;
14048;SDS011;7099;53.922;10.728;2023-05-07T22:46:14;5.83;;;2.43;;
14048;SDS011;7099;53.922;10.728;2023-05-07T22:50:20;3.93;;;2.20;;
14048;SDS011;7099;53.922;10.728;2023-05-07T22:54:26;3.23;;;2.40;;
14048;SDS011;7099;53.922;10.728;2023-05-07T22:58:31;6.70;;;2.70;;
14048;SDS011;7099;53.922;10.728;2023-05-07T23:02:37;3.23;;;2.60;;
14048;SDS011;7099;53.922;10.728;2023-05-07T23:06:43;3.70;;;2.40;;
14048;SDS011;7099;53.922;10.728;2023-05-07T23:10:48;2.90;;;2.30;;
14048;SDS011;7099;53.922;10.728;2023-05-07T23:14:54;4.57;;;2.63;;
14048;SDS011;7099;53.922;10.728;2023-05-07T23:18:59;5.13;;;2.53;;
14048;SDS011;7099;53.922;10.728;2023-05-07T23:23:05;3.23;;;2.33;;
14048;SDS011;7099;53.922;10.728;2023-05-07T23:27:11;5.00;;;2.37;;
14048;SDS011;7099;53.922;10.728;2023-05-07T23:31:17;3.00;;;2.20;;
14048;SDS011;7099;53.922;10.728;2023-05-07T23:35:22;5.70;;;2.60;;
14048;SDS011;7099;53.922;10.728;2023-05-07T23:39:29;2.70;;;2.10;;
14048;SDS011;7099;53.922;10.728;2023-05-07T23:43:35;5.43;;;2.47;;
14048;SDS011;7099;53.922;10.728;2023-05-07T23:47:40;3.97;;;2.00;;
14048;SDS011;7099;53.922;10.728;2023-05-07T23:51:46;3.13;;;2.20;;
14048;SDS011;7099;53.922;10.728;2023-05-07T23:55:52;2.20;;;2.00;;
14048;SDS011;7099;53.922;10.728;2023-05-07T23:59:57;2.50;;;2.23;;
